Time;durP1;ratioP1;P1;durP2;ratioP2;P2;SDS_P1;SDS_P2;PMS_P1;PMS_P2;Temp;Humidity;BMP_temperature;BMP_pressure;BME280_temperature;BME280_humidity;BME280_pressure;Samples;Min_cycle;Max_cycle;Signal;HPM_P1;HPM_P2
2022/04/19 00:01:30;;;;;;;13.82;10.25;;;25.00;99.90;;;;;;5011485;28;20054;-55
2022/04/19 00:03:56;;;;;;;11.70;9.70;;;24.90;99.90;;;;;;5013010;28;20157;-55
2022/04/19 00:06:21;;;;;;;14.23;10.25;;;24.90;99.90;;;;;;5020374;28;20104;-56
2022/04/19 00:08:51;;;;;;;12.13;9.82;;;24.90;99.90;;;;;;5032526;28;20044;-55
2022/04/19 00:11:18;;;;;;;14.10;9.50;;;24.90;99.90;;;;;;5032489;28;20057;-55
2022/04/19 00:13:43;;;;;;;15.73;10.82;;;24.90;99.90;;;;;;5031339;28;20037;-55
2022/04/19 00:16:09;;;;;;;13.93;10.02;;;24.90;99.90;;;;;;5032097;28;20017;-55
2022/04/19 00:18:35;;;;;;;12.98;9.75;;;24.90;99.90;;;;;;5032411;28;20033;-55
2022/04/19 00:21:02;;;;;;;14.48;10.57;;;24.90;99.90;;;;;;5032418;28;20109;-55
2022/04/19 00:23:28;;;;;;;16.52;11.27;;;24.90;99.90;;;;;;5032351;28;20053;-55
2022/04/19 00:25:54;;;;;;;17.55;11.50;;;24.80;99.90;;;;;;5028496;28;20467;-55
2022/04/19 00:28:20;;;;;;;13.93;10.52;;;24.90;99.90;;;;;;5012384;28;20041;-55
2022/04/19 00:30:49;;;;;;;14.32;11.65;;;24.80;99.90;;;;;;5012477;28;20065;-55
2022/04/19 00:33:16;;;;;;;15.48;11.20;;;24.90;99.90;;;;;;5012357;28;20041;-55
2022/04/19 00:35:42;;;;;;;14.27;11.07;;;24.80;99.90;;;;;;5009793;28;20030;-55
2022/04/19 00:38:08;;;;;;;14.18;11.02;;;24.80;99.90;;;;;;5031974;28;20028;-55
2022/04/19 00:40:34;;;;;;;13.48;10.90;;;24.80;99.90;;;;;;5031952;28;20044;-56
2022/04/19 00:43:00;;;;;;;13.95;10.85;;;24.80;99.90;;;;;;5030604;28;20025;-55
2022/04/19 00:45:26;;;;;;;12.87;10.87;;;24.80;99.90;;;;;;5018685;28;20030;-55
2022/04/19 00:47:53;;;;;;;17.63;12.13;;;24.80;99.90;;;;;;5012208;28;20033;-55
2022/04/19 00:50:20;;;;;;;17.27;10.45;;;24.80;99.90;;;;;;5012053;28;20475;-55
2022/04/19 00:52:46;;;;;;;15.93;10.98;;;24.80;99.90;;;;;;5012195;28;20042;-56
2022/04/19 00:55:12;;;;;;;16.77;11.27;;;24.80;99.90;;;;;;5022750;28;20112;-55
2022/04/19 00:57:39;;;;;;;13.52;11.20;;;24.80;99.90;;;;;;5031598;28;20072;-56
2022/04/19 01:00:08;;;;;;;14.55;10.30;;;24.80;99.90;;;;;;5035190;23;20045;-52
2022/04/19 01:02:35;;;;;;;16.90;11.32;;;24.80;99.90;;;;;;5011498;28;20041;-52
2022/04/19 01:05:02;;;;;;;15.95;10.65;;;24.80;99.90;;;;;;5012273;28;20032;-53
2022/04/19 01:07:28;;;;;;;13.32;10.15;;;24.80;99.90;;;;;;5011780;28;20026;-53
2022/04/19 01:09:54;;;;;;;12.23;9.88;;;24.80;99.90;;;;;;5012827;28;20053;-53
2022/04/19 01:15:06;;;;;;;11.88;9.93;;;24.80;99.90;;;;;;5011938;28;20044;-53
2022/04/19 01:17:39;;;;;;;16.40;10.23;;;24.80;99.90;;;;;;5011778;28;20512;-52
2022/04/19 01:20:06;;;;;;;16.23;11.15;;;24.80;99.90;;;;;;5011641;28;20509;-52
2022/04/19 01:22:39;;;;;;;14.63;10.77;;;24.80;99.90;;;;;;5011583;28;20126;-52
2022/04/19 01:25:06;;;;;;;12.93;11.07;;;24.80;99.90;;;;;;5020430;28;20025;-52
2022/04/19 01:27:33;;;;;;;11.77;9.75;;;24.80;99.90;;;;;;5031319;28;20036;-52
2022/04/19 01:30:04;;;;;;;12.20;9.98;;;24.80;99.90;;;;;;5031352;28;20034;-52
2022/04/19 01:32:30;;;;;;;13.70;9.90;;;24.80;99.90;;;;;;5031352;28;20033;-52
2022/04/19 01:35:10;;;;;;;12.38;9.90;;;24.80;99.90;;;;;;5022924;28;20034;-52
2022/04/19 01:37:39;;;;;;;12.73;10.15;;;24.70;99.90;;;;;;5010258;28;20033;-52
2022/04/19 01:40:24;;;;;;;15.20;10.60;;;24.70;99.90;;;;;;5010060;28;20044;-51
2022/04/19 01:42:52;;;;;;;14.27;9.93;;;24.70;99.90;;;;;;5015127;28;20017;-52
2022/04/19 01:45:19;;;;;;;13.45;10.13;;;24.70;99.90;;;;;;5030910;28;20105;-52
2022/04/19 01:47:46;;;;;;;11.93;9.80;;;24.70;99.90;;;;;;5030798;28;20147;-52
2022/04/19 01:50:14;;;;;;;14.65;10.10;;;24.70;99.90;;;;;;5030975;28;20018;-52
2022/04/19 01:52:41;;;;;;;12.27;8.77;;;24.70;99.90;;;;;;5027916;28;20034;-52
2022/04/19 01:55:09;;;;;;;12.25;8.90;;;24.70;99.90;;;;;;5011080;28;20078;-52
2022/04/19 01:57:35;;;;;;;12.82;9.75;;;24.70;99.90;;;;;;5011146;28;20062;-52
2022/04/19 02:00:04;;;;;;;12.55;9.93;;;24.70;99.90;;;;;;5023931;22;20060;-53
2022/04/19 02:02:30;;;;;;;11.50;9.48;;;24.70;99.90;;;;;;5012471;28;20040;-53
2022/04/19 02:04:56;;;;;;;12.00;8.77;;;24.70;99.90;;;;;;5030797;28;20112;-54
2022/04/19 02:07:22;;;;;;;12.50;9.65;;;24.70;99.90;;;;;;5030658;28;20438;-53
2022/04/19 02:09:48;;;;;;;10.70;8.80;;;24.70;99.90;;;;;;5030496;28;20124;-54
2022/04/19 02:12:14;;;;;;;12.70;9.73;;;24.70;99.90;;;;;;5030545;28;20522;-54
2022/04/19 02:14:41;;;;;;;12.25;8.85;;;24.70;99.90;;;;;;5033127;28;20116;-54
2022/04/19 02:17:09;;;;;;;12.27;8.82;;;24.70;99.90;;;;;;5034500;28;20064;-54
2022/04/19 02:19:38;;;;;;;13.75;9.50;;;24.70;99.90;;;;;;5034834;28;20112;-54
2022/04/19 02:22:06;;;;;;;10.77;8.88;;;24.70;99.90;;;;;;5034843;28;20101;-54
2022/04/19 02:24:34;;;;;;;12.70;9.13;;;24.70;99.90;;;;;;5017546;28;20560;-54
2022/04/19 02:27:01;;;;;;;10.35;8.73;;;24.70;99.90;;;;;;5014702;28;20030;-54
2022/04/19 02:29:27;;;;;;;12.10;9.75;;;24.70;99.90;;;;;;5014820;28;20068;-54
2022/04/19 02:31:53;;;;;;;10.02;8.65;;;24.70;99.90;;;;;;5014527;28;20033;-53
2022/04/19 02:34:19;;;;;;;13.43;9.43;;;24.70;99.90;;;;;;5014376;28;20050;-53
2022/04/19 02:36:45;;;;;;;11.40;9.10;;;24.70;99.90;;;;;;5014428;28;20061;-53
2022/04/19 02:39:11;;;;;;;12.73;9.10;;;24.70;99.90;;;;;;5014224;28;20116;-54
2022/04/19 02:41:38;;;;;;;11.75;9.13;;;24.70;99.90;;;;;;5026892;28;20512;-54
2022/04/19 02:44:06;;;;;;;10.73;8.52;;;24.70;99.90;;;;;;5033409;28;20382;-54
2022/04/19 02:46:33;;;;;;;11.73;8.55;;;24.70;99.90;;;;;;5034089;28;20481;-53
2022/04/19 02:49:04;;;;;;;10.53;8.40;;;24.70;99.90;;;;;;5034033;28;20516;-54
2022/04/19 02:51:30;;;;;;;12.40;9.35;;;24.70;99.90;;;;;;5022830;28;20271;-54
2022/04/19 02:53:56;;;;;;;13.13;9.05;;;24.70;99.90;;;;;;5013165;28;20056;-54
2022/04/19 02:56:22;;;;;;;13.40;9.35;;;24.70;99.90;;;;;;5013952;28;20521;-54
2022/04/19 02:58:48;;;;;;;11.18;9.13;;;24.70;99.90;;;;;;5014138;28;20490;-54
2022/04/19 03:01:14;;;;;;;11.40;9.43;;;24.60;99.90;;;;;;5025161;23;20053;-59
2022/04/19 03:03:39;;;;;;;15.07;10.77;;;24.70;99.90;;;;;;5014155;28;20025;-58
2022/04/19 03:06:07;;;;;;;13.10;9.98;;;24.70;99.90;;;;;;5014430;28;20034;-58
2022/04/19 03:08:33;;;;;;;10.88;9.18;;;24.60;99.90;;;;;;5014105;28;20045;-57
2022/04/19 03:10:59;;;;;;;11.18;9.25;;;24.60;99.90;;;;;;5018392;28;20029;-57
2022/04/19 03:13:27;;;;;;;14.05;9.45;;;24.60;99.90;;;;;;5033200;28;20045;-59
2022/04/19 03:15:53;;;;;;;12.57;9.45;;;24.60;99.90;;;;;;5033652;28;20045;-59
2022/04/19 03:18:18;;;;;;;11.02;8.73;;;24.60;99.90;;;;;;5033678;28;20444;-58
2022/04/19 03:20:46;;;;;;;13.80;9.82;;;24.60;99.90;;;;;;5030048;28;20021;-59
2022/04/19 03:28:41;;;;;;;13.10;9.27;;;24.60;99.90;;;;;;5013724;28;20056;-60
2022/04/19 03:31:07;;;;;;;13.50;9.27;;;24.60;99.90;;;;;;5014936;28;20034;-59
2022/04/19 03:33:36;;;;;;;13.38;9.20;;;24.60;99.90;;;;;;5013301;28;20128;-60
2022/04/19 03:36:02;;;;;;;14.00;9.65;;;24.50;99.90;;;;;;5013428;28;20053;-60
2022/04/19 03:38:28;;;;;;;11.82;9.88;;;24.50;99.90;;;;;;5013337;28;20044;-60
2022/04/19 03:40:54;;;;;;;11.10;9.55;;;24.50;99.90;;;;;;5029154;28;20441;-60
2022/04/19 03:43:20;;;;;;;11.80;9.93;;;24.50;99.90;;;;;;5033265;28;20067;-60
2022/04/19 03:45:45;;;;;;;14.05;11.15;;;24.50;99.90;;;;;;5033079;28;20492;-60
2022/04/19 03:48:15;;;;;;;13.32;10.63;;;24.50;99.90;;;;;;5025667;28;20029;-61
2022/04/19 03:50:41;;;;;;;12.75;9.32;;;24.60;99.90;;;;;;5011782;28;20600;-63
2022/04/19 03:53:07;;;;;;;13.07;10.02;;;24.50;99.90;;;;;;5013305;28;20037;-60
2022/04/19 03:55:33;;;;;;;11.68;9.65;;;24.50;99.90;;;;;;5013023;28;20071;-60
2022/04/19 03:57:59;;;;;;;11.35;9.23;;;24.50;99.90;;;;;;5012986;28;20343;-59
2022/04/19 04:00:25;;;;;;;12.98;9.82;;;24.50;99.90;;;;;;5013455;28;20072;-60
2022/04/19 04:02:51;;;;;;;13.25;9.77;;;24.50;99.90;;;;;;5012676;28;20022;-60
2022/04/19 04:05:17;;;;;;;15.38;9.98;;;24.50;99.90;;;;;;5011751;28;20057;-60
2022/04/19 04:07:42;;;;;;;15.27;11.13;;;24.50;99.90;;;;;;5015517;28;20026;-60
2022/04/19 04:10:09;;;;;;;12.02;9.63;;;24.50;99.90;;;;;;5031343;28;20482;-60
2022/04/19 04:12:35;;;;;;;13.75;10.90;;;24.60;99.90;;;;;;5032446;28;20035;-61
2022/04/19 04:15:01;;;;;;;12.70;9.23;;;24.50;99.90;;;;;;5032219;28;20025;-61
2022/04/19 04:17:27;;;;;;;12.15;10.00;;;24.50;99.90;;;;;;5032039;28;20033;-59
2022/04/19 04:19:53;;;;;;;12.35;9.77;;;24.50;99.90;;;;;;5032178;28;20125;-60
2022/04/19 04:22:19;;;;;;;11.90;9.90;;;24.50;99.90;;;;;;5032207;28;20104;-60
2022/04/19 04:24:44;;;;;;;11.68;9.95;;;24.50;99.90;;;;;;5031899;28;20059;-60
2022/04/19 04:27:10;;;;;;;13.05;10.05;;;24.50;99.90;;;;;;5032241;28;20381;-60
2022/04/19 04:29:36;;;;;;;13.63;9.88;;;24.50;99.90;;;;;;5014168;28;20394;-60
2022/04/19 04:32:03;;;;;;;13.63;9.50;;;24.50;99.90;;;;;;5012278;28;20026;-57
2022/04/19 04:34:29;;;;;;;12.30;9.77;;;24.50;99.90;;;;;;5012199;28;20030;-59
2022/04/19 04:36:55;;;;;;;12.20;9.30;;;24.50;99.90;;;;;;5011403;28;20045;-60
2022/04/19 04:39:20;;;;;;;11.30;9.35;;;24.50;99.90;;;;;;5027387;28;20600;-59
2022/04/19 04:41:46;;;;;;;13.45;9.82;;;24.50;99.90;;;;;;5031953;28;20064;-60
2022/04/19 04:44:12;;;;;;;12.60;9.25;;;24.50;99.90;;;;;;5032113;28;20029;-60
2022/04/19 04:49:39;;;;;;;13.80;9.70;;;24.50;99.90;;;;;;5013427;28;20500;-60
2022/04/19 04:52:14;;;;;;;11.80;9.48;;;24.50;99.90;;;;;;5031671;28;20055;-58
2022/04/19 04:54:42;;;;;;;10.30;9.05;;;24.50;99.90;;;;;;5031624;28;20029;-58
2022/04/19 04:57:08;;;;;;;12.02;9.52;;;24.50;99.90;;;;;;5020434;28;20045;-59
2022/04/19 04:59:35;;;;;;;14.32;10.00;;;24.50;99.90;;;;;;5011619;28;20778;-58
2022/04/19 05:02:01;;;;;;;14.57;9.90;;;24.50;99.90;;;;;;5011750;28;20065;-58
2022/04/19 05:04:27;;;;;;;11.70;9.10;;;24.50;99.90;;;;;;5011686;28;20049;-57
2022/04/19 05:06:53;;;;;;;15.25;9.88;;;24.40;99.90;;;;;;5020279;28;20029;-58
2022/04/19 05:09:19;;;;;;;12.38;8.93;;;24.40;99.90;;;;;;5031482;28;20177;-58
2022/04/19 05:11:50;;;;;;;13.45;9.27;;;24.40;99.90;;;;;;5031487;28;20037;-58
2022/04/19 05:14:16;;;;;;;14.35;9.35;;;24.40;99.90;;;;;;5031179;28;20025;-59
2022/04/19 05:16:42;;;;;;;11.85;9.68;;;24.40;99.90;;;;;;5024214;28;20228;-58
2022/04/19 05:19:09;;;;;;;11.90;9.23;;;24.40;99.90;;;;;;5011580;28;20061;-59
2022/04/19 05:21:37;;;;;;;12.27;9.03;;;24.40;99.90;;;;;;5011406;28;20033;-57
2022/04/19 05:24:07;;;;;;;14.35;9.45;;;24.40;99.90;;;;;;5011512;28;20393;-56
2022/04/19 05:26:33;;;;;;;11.10;8.65;;;24.40;99.90;;;;;;5016732;28;20075;-58
2022/04/19 05:28:58;;;;;;;12.00;9.05;;;24.40;99.90;;;;;;5031090;28;20389;-57
2022/04/19 05:31:25;;;;;;;12.27;9.25;;;24.40;99.90;;;;;;5031337;28;20021;-58
2022/04/19 05:33:51;;;;;;;13.07;9.23;;;24.30;99.90;;;;;;5031139;28;20155;-61
2022/04/19 05:36:17;;;;;;;12.07;8.70;;;24.30;99.90;;;;;;5026441;28;20113;-60
2022/04/19 05:38:43;;;;;;;11.10;8.60;;;24.30;99.90;;;;;;5011560;28;20030;-56
2022/04/19 05:41:10;;;;;;;12.48;9.13;;;24.30;99.90;;;;;;5011390;28;20497;-56
2022/04/19 05:43:36;;;;;;;10.68;8.85;;;24.30;99.90;;;;;;4993945;28;20030;-56
2022/04/19 05:46:02;;;;;;;11.80;8.63;;;24.30;99.90;;;;;;5011741;28;20022;-55
2022/04/19 05:48:28;;;;;;;11.73;9.02;;;24.30;99.90;;;;;;5031736;28;20104;-56
2022/04/19 05:50:54;;;;;;;11.82;9.10;;;24.30;99.90;;;;;;5035063;28;20040;-55
2022/04/19 05:53:20;;;;;;;10.93;8.38;;;24.30;99.90;;;;;;5034965;28;20037;-58
2022/04/19 05:55:46;;;;;;;12.10;9.15;;;24.30;99.90;;;;;;5022807;28;20032;-59
2022/04/19 05:58:12;;;;;;;12.13;9.13;;;24.30;99.90;;;;;;5015343;28;20315;-59
2022/04/19 06:00:38;;;;;;;9.77;8.00;;;24.30;99.90;;;;;;5015134;28;20582;-58
2022/04/19 06:05:48;;;;;;;13.50;9.00;;;24.30;99.90;;;;;;5027346;28;20106;-58
2022/04/19 06:08:14;;;;;;;10.63;8.23;;;24.30;99.90;;;;;;5035019;28;20053;-59
2022/04/19 06:10:41;;;;;;;11.98;8.60;;;24.30;99.90;;;;;;5035029;28;20430;-59
2022/04/19 06:13:07;;;;;;;11.52;9.32;;;24.30;99.90;;;;;;5031030;28;20068;-59
2022/04/19 06:15:33;;;;;;;11.98;9.45;;;24.30;99.90;;;;;;5020273;28;20049;-60
2022/04/19 06:17:59;;;;;;;13.43;9.98;;;24.30;99.90;;;;;;5015099;28;20030;-59
2022/04/19 06:20:25;;;;;;;10.82;8.43;;;24.30;99.90;;;;;;5014788;28;20473;-59
2022/04/19 06:22:51;;;;;;;13.30;9.60;;;24.30;99.90;;;;;;5014750;28;20062;-58
2022/04/19 06:25:17;;;;;;;10.43;8.55;;;24.30;99.90;;;;;;5022594;28;20029;-58
2022/04/19 06:27:43;;;;;;;14.13;10.73;;;24.30;99.90;;;;;;5034672;28;20021;-58
2022/04/19 06:30:10;;;;;;;16.02;9.93;;;24.30;99.90;;;;;;5034539;28;20108;-58
2022/04/19 06:32:36;;;;;;;12.70;9.40;;;24.30;99.90;;;;;;5034307;28;20034;-56
2022/04/19 06:35:02;;;;;;;13.95;9.73;;;24.30;99.90;;;;;;5028773;28;20442;-57
2022/04/19 06:37:29;;;;;;;12.50;9.10;;;24.30;99.90;;;;;;5013275;28;20065;-58
2022/04/19 06:39:58;;;;;;;15.05;11.27;;;24.30;99.90;;;;;;5014544;28;20359;-57
2022/04/19 06:42:24;;;;;;;14.90;10.73;;;24.30;99.90;;;;;;5014498;28;20038;-57
2022/04/19 06:44:50;;;;;;;14.75;10.95;;;24.30;99.90;;;;;;5026959;28;20049;-56
2022/04/19 06:47:16;;;;;;;14.40;11.02;;;24.30;99.90;;;;;;5034318;28;20037;-57
2022/04/19 06:49:42;;;;;;;14.80;10.82;;;24.30;99.90;;;;;;5034090;28;20029;-56
2022/04/19 06:52:09;;;;;;;16.30;11.40;;;24.30;99.90;;;;;;5034044;28;20037;-55
2022/04/19 06:54:34;;;;;;;14.70;9.50;;;24.30;99.90;;;;;;5022946;28;20069;-56
2022/04/19 06:57:00;;;;;;;15.43;10.68;;;24.30;99.90;;;;;;5014112;28;20053;-58
2022/04/19 06:59:26;;;;;;;12.00;9.82;;;24.30;99.90;;;;;;5013712;28;20363;-56
2022/04/19 07:01:52;;;;;;;13.40;11.38;;;24.30;99.90;;;;;;5015101;28;20087;-57
2022/04/19 07:04:18;;;;;;;12.35;9.73;;;24.30;99.90;;;;;;5033786;28;20486;-57
2022/04/19 07:06:44;;;;;;;15.27;10.27;;;24.30;99.90;;;;;;5033768;28;20068;-58
2022/04/19 07:09:09;;;;;;;11.48;9.65;;;24.40;99.90;;;;;;5033835;28;20025;-57
2022/04/19 07:11:37;;;;;;;13.93;10.57;;;24.40;99.90;;;;;;5033629;28;20033;-57
2022/04/19 07:14:04;;;;;;;14.75;9.77;;;24.40;99.90;;;;;;5033091;28;20477;-57
2022/04/19 07:16:29;;;;;;;16.08;10.32;;;24.40;99.90;;;;;;5033661;28;20034;-57
2022/04/19 07:18:55;;;;;;;12.73;9.65;;;24.40;99.90;;;;;;5033525;28;20017;-57
2022/04/19 07:26:50;;;;;;;11.23;9.50;;;24.40;99.90;;;;;;5014133;28;20092;-57
2022/04/19 07:29:18;;;;;;;14.15;8.73;;;24.40;99.90;;;;;;5013670;28;20025;-56
2022/04/19 07:31:46;;;;;;;13.93;9.00;;;24.40;99.90;;;;;;5013446;28;20481;-57
2022/04/19 07:34:13;;;;;;;11.93;9.05;;;24.40;99.90;;;;;;4993923;28;20030;-57
2022/04/19 07:36:42;;;;;;;10.97;8.67;;;24.40;99.90;;;;;;4993969;28;20081;-56
2022/04/19 07:39:09;;;;;;;14.15;8.68;;;24.50;99.90;;;;;;4993892;28;20127;-56
2022/04/19 07:41:35;;;;;;;10.75;8.45;;;24.50;99.90;;;;;;4993872;28;20422;-56
2022/04/19 07:44:02;;;;;;;11.43;8.50;;;24.50;99.90;;;;;;5031128;28;20038;-57
2022/04/19 07:46:28;;;;;;;11.55;9.60;;;24.50;99.90;;;;;;5032819;28;20067;-58
2022/04/19 07:48:55;;;;;;;10.93;8.80;;;24.50;99.90;;;;;;5033177;28;20029;-58
2022/04/19 07:51:21;;;;;;;11.73;8.75;;;24.50;99.90;;;;;;5033235;28;20269;-59
2022/04/19 07:53:47;;;;;;;13.85;10.15;;;24.50;99.90;;;;;;5016044;28;20291;-57
2022/04/19 07:56:12;;;;;;;13.90;9.43;;;24.50;99.90;;;;;;5012975;28;20437;-56
2022/04/19 07:58:38;;;;;;;11.82;8.32;;;24.50;99.90;;;;;;5012942;28;20033;-58
2022/04/19 08:01:05;;;;;;;11.70;9.05;;;24.50;99.90;;;;;;5012709;28;20061;-55
2022/04/19 08:03:31;;;;;;;12.70;8.77;;;24.50;99.90;;;;;;5026656;28;20492;-55
2022/04/19 08:05:56;;;;;;;10.02;8.57;;;24.50;99.90;;;;;;5032639;28;20018;-58
2022/04/19 08:08:22;;;;;;;10.57;8.55;;;24.50;99.90;;;;;;5033019;28;20025;-62
2022/04/19 08:10:49;;;;;;;14.55;9.52;;;24.50;99.90;;;;;;5027161;28;20540;-63
2022/04/19 08:13:15;;;;;;;20.92;10.50;;;24.50;99.90;;;;;;5012636;28;20076;-61
2022/04/19 08:15:41;;;;;;;18.17;10.77;;;24.50;99.90;;;;;;5012869;28;20022;-59
2022/04/19 08:18:11;;;;;;;17.77;10.07;;;24.50;99.90;;;;;;5012815;28;20484;-58
2022/04/19 08:20:37;;;;;;;17.73;10.70;;;24.50;99.90;;;;;;5029709;28;20040;-59
2022/04/19 08:23:03;;;;;;;15.77;9.50;;;24.50;99.90;;;;;;5032306;28;20032;-61
2022/04/19 08:25:29;;;;;;;15.77;9.02;;;24.50;99.90;;;;;;5011376;28;20022;-58
2022/04/19 08:27:55;;;;;;;16.88;9.32;;;24.50;99.90;;;;;;5006775;28;20041;-61
2022/04/19 08:30:21;;;;;;;15.48;8.73;;;24.50;99.90;;;;;;5011237;28;20513;-60
2022/04/19 08:32:47;;;;;;;17.30;10.07;;;24.50;99.90;;;;;;5005056;28;20044;-60
2022/04/19 08:35:13;;;;;;;15.95;8.65;;;24.50;99.90;;;;;;5009232;28;20064;-61
2022/04/19 08:37:39;;;;;;;14.68;8.55;;;24.60;99.90;;;;;;5012251;28;20022;-62
2022/04/19 08:40:10;;;;;;;12.50;8.55;;;24.50;99.90;;;;;;5010723;28;20030;-61
2022/04/19 08:42:38;;;;;;;13.60;8.40;;;24.50;99.90;;;;;;5009739;28;20026;-61
2022/04/19 08:45:05;;;;;;;14.50;8.00;;;24.60;99.90;;;;;;5010286;28;20041;-61
2022/04/19 08:47:32;;;;;;;14.52;7.80;;;24.60;99.90;;;;;;5009658;28;20018;-59
2022/04/19 08:50:01;;;;;;;16.02;7.88;;;24.60;99.90;;;;;;5010888;28;20107;-57
2022/04/19 08:52:27;;;;;;;17.77;8.40;;;24.60;99.90;;;;;;5009556;28;20056;-59
2022/04/19 08:57:39;;;;;;;13.90;7.85;;;24.60;99.90;;;;;;5012383;28;20056;-59
2022/04/19 09:00:07;;;;;;;13.77;6.80;;;24.60;99.90;;;;;;5009707;28;20076;-58
2022/04/19 09:02:37;;;;;;;11.52;6.97;;;24.60;99.90;;;;;;5008309;28;20056;-59
2022/04/19 09:05:14;;;;;;;14.13;6.60;;;24.60;99.90;;;;;;5004259;28;20437;-60
2022/04/19 09:07:41;;;;;;;12.70;6.93;;;24.60;99.90;;;;;;5008441;28;20028;-60
2022/04/19 09:10:07;;;;;;;14.88;7.82;;;24.60;99.90;;;;;;5008525;28;20026;-61
2022/04/19 09:12:34;;;;;;;10.63;6.37;;;24.60;99.90;;;;;;5008288;28;20089;-60
2022/04/19 09:15:06;;;;;;;15.95;6.57;;;24.60;99.90;;;;;;5009951;28;20450;-57
2022/04/19 09:17:35;;;;;;;10.15;6.63;;;24.60;99.90;;;;;;5009333;28;20037;-57
2022/04/19 09:20:27;;;;;;;15.38;7.35;;;24.70;99.90;;;;;;5009659;28;20430;-57
2022/04/19 09:23:12;;;;;;;11.90;6.82;;;24.70;99.90;;;;;;5006225;28;20084;-58
2022/04/19 09:25:39;;;;;;;7.88;5.75;;;24.60;99.90;;;;;;5022367;28;20025;-58
2022/04/19 09:28:17;;;;;;;10.47;5.27;;;24.70;99.90;;;;;;5006084;28;20030;-59
2022/04/19 09:30:45;;;;;;;11.10;6.30;;;24.60;99.90;;;;;;5029643;28;20022;-58
2022/04/19 09:33:20;;;;;;;12.75;5.75;;;24.70;99.90;;;;;;5031110;28;20056;-59
2022/04/19 09:35:55;;;;;;;11.57;6.25;;;24.70;99.90;;;;;;5027788;28;20032;-59
2022/04/19 09:38:44;;;;;;;18.13;6.35;;;24.70;99.90;;;;;;5011466;28;20372;-60
2022/04/19 09:41:10;;;;;;;10.93;5.47;;;24.70;99.90;;;;;;5011311;28;20037;-59
2022/04/19 09:43:37;;;;;;;13.70;6.40;;;24.70;99.90;;;;;;5011273;28;20493;-59
2022/04/19 09:46:04;;;;;;;13.60;5.82;;;24.70;99.90;;;;;;5016316;28;20060;-61
2022/04/19 09:48:34;;;;;;;;;;;24.70;99.90;;;;;;5031432;28;20025;-59
2022/04/19 09:51:02;;;;;;;7.20;4.68;;;24.70;99.90;;;;;;5031022;28;19905;-59
2022/04/19 09:53:40;;;;;;;10.32;5.95;;;24.70;99.90;;;;;;5031099;28;20564;-59
2022/04/19 09:56:07;;;;;;;;;;;24.70;99.90;;;;;;5025601;28;20018;-58
2022/04/19 09:58:33;;;;;;;16.55;6.13;;;24.70;99.90;;;;;;5011188;28;19910;-59
2022/04/19 10:00:59;;;;;;;7.32;4.75;;;24.70;99.90;;;;;;5011289;28;20494;-59
2022/04/19 10:08:38;;;;;;;12.02;5.05;;;24.70;99.90;;;;;;5030735;28;20429;-59
2022/04/19 10:11:05;;;;;;;8.45;4.95;;;24.70;99.90;;;;;;5030696;28;20389;-59
2022/04/19 10:13:33;;;;;;;9.88;5.03;;;24.70;99.90;;;;;;5030769;28;20041;-59
2022/04/19 10:16:00;;;;;;;11.35;4.82;;;24.70;99.90;;;;;;5013044;28;20022;-60
2022/04/19 10:18:26;;;;;;;16.05;5.28;;;24.70;99.90;;;;;;5011115;28;20045;-59
2022/04/19 10:20:54;;;;;;;11.35;5.13;;;24.70;99.90;;;;;;5011108;28;20027;-61
2022/04/19 10:23:21;;;;;;;17.20;8.38;;;24.70;99.90;;;;;;5020642;28;20029;-60
2022/04/19 10:25:48;;;;;;;16.50;10.00;;;24.70;99.90;;;;;;5030934;28;20084;-59
2022/04/19 10:28:28;;;;;;;16.48;8.00;;;24.80;99.90;;;;;;5030761;28;20041;-60
2022/04/19 10:30:55;;;;;;;14.25;8.43;;;24.80;99.90;;;;;;5030715;28;20041;-59
2022/04/19 10:33:48;;;;;;;12.65;6.38;;;24.80;99.90;;;;;;5020579;28;20043;-60
2022/04/19 10:36:22;;;;;;;14.23;6.80;;;24.80;99.90;;;;;;5012949;28;20084;-59
2022/04/19 10:39:16;;;;;;;13.10;7.80;;;24.80;99.90;;;;;;5014551;28;20048;-59
2022/04/19 10:41:47;;;;;;;14.07;7.97;;;24.90;99.90;;;;;;5014507;28;20053;-60
2022/04/19 10:44:28;;;;;;;18.60;8.13;;;24.90;99.90;;;;;;5030703;28;20028;-59
2022/04/19 10:47:08;;;;;;;12.90;7.70;;;24.90;99.90;;;;;;5022627;28;20477;-60
2022/04/19 10:49:58;;;;;;;12.57;7.20;;;24.90;99.90;;;;;;5014320;28;20114;-58
2022/04/19 10:52:36;;;;;;;14.23;7.43;;;24.90;99.90;;;;;;5011436;28;20053;-59
2022/04/19 10:55:06;;;;;;;15.95;7.72;;;24.90;99.90;;;;;;5014431;28;20026;-58
2022/04/19 11:00:42;;;;;;;13.55;7.25;;;25.00;99.90;;;;;;5014274;28;20049;-58
2022/04/19 11:03:15;;;;;;;12.38;6.25;;;25.00;99.90;;;;;;5014145;28;20022;-58
2022/04/19 11:05:51;;;;;;;9.27;6.03;;;25.00;99.90;;;;;;5023821;28;20029;-59
2022/04/19 11:08:20;;;;;;;12.07;6.65;;;25.00;99.90;;;;;;5033759;28;20037;-58
2022/04/19 11:10:47;;;;;;;10.73;6.10;;;25.00;99.90;;;;;;5033853;28;20052;-59
2022/04/19 11:13:13;;;;;;;10.63;5.40;;;25.00;99.90;;;;;;5033588;28;20401;-58
2022/04/19 11:15:41;;;;;;;9.63;5.22;;;25.00;99.90;;;;;;5022692;28;20034;-59
2022/04/19 11:18:23;;;;;;;10.65;5.35;;;25.00;99.90;;;;;;5013704;28;20045;-58
2022/04/19 11:20:50;;;;;;;9.18;5.22;;;25.00;99.90;;;;;;5013825;28;20080;-59
2022/04/19 11:23:21;;;;;;;12.13;5.97;;;25.10;99.90;;;;;;5016923;28;20447;-58
2022/04/19 11:25:48;;;;;;;8.82;4.80;;;25.10;99.90;;;;;;5033343;28;20087;-59
2022/04/19 11:28:17;;;;;;;8.87;4.53;;;25.10;99.90;;;;;;5033501;28;20542;-59
2022/04/19 11:30:45;;;;;;;12.32;5.50;;;25.10;99.90;;;;;;5033323;28;20018;-59
2022/04/19 11:33:19;;;;;;;9.02;4.95;;;25.10;99.90;;;;;;5030557;28;20405;-59
2022/04/19 11:36:04;;;;;;;9.45;4.78;;;25.10;99.90;;;;;;5013539;28;20014;-59
2022/04/19 11:38:32;;;;;;;10.07;4.50;;;25.10;99.90;;;;;;5013468;28;20037;-59
2022/04/19 11:46:46;;;;;;;8.15;5.10;;;25.20;99.90;;;;;;5032969;28;20060;-59
2022/04/19 11:49:26;;;;;;;7.82;4.82;;;25.20;99.90;;;;;;5032924;28;20034;-64
2022/04/19 11:51:56;;;;;;;10.30;4.57;;;25.20;99.90;;;;;;5028166;28;20037;-61
2022/04/19 11:54:30;;;;;;;11.13;5.28;;;25.20;99.90;;;;;;5014866;28;20034;-59
2022/04/19 11:56:57;;;;;;;8.63;4.57;;;25.20;99.90;;;;;;5010606;28;20092;-58
2022/04/19 11:59:29;;;;;;;12.50;5.18;;;25.20;99.90;;;;;;5013730;28;20037;-58
2022/04/19 12:01:56;;;;;;;9.13;5.60;;;25.30;99.90;;;;;;5009329;28;20108;-59
2022/04/19 12:04:22;;;;;;;11.88;5.05;;;25.20;99.90;;;;;;5009687;28;20154;-59
2022/04/19 12:06:52;;;;;;;13.27;6.20;;;25.20;99.90;;;;;;5012987;28;20421;-61
2022/04/19 12:09:19;;;;;;;11.50;4.75;;;25.30;99.90;;;;;;5012938;28;20547;-51
2022/04/19 12:11:49;;;;;;;12.75;4.53;;;25.20;99.90;;;;;;5012887;28;20084;-54
2022/04/19 12:14:24;;;;;;;10.23;5.28;;;25.30;99.90;;;;;;5016632;28;20033;-54
2022/04/19 12:17:06;;;;;;;11.90;5.22;;;25.30;99.90;;;;;;5018893;28;20028;-54
2022/04/19 12:26:10;;;;;;;9.93;4.05;;;25.40;99.90;;;;;;5125057;27;20453;-53
2022/04/19 12:28:45;;;;;;;11.85;4.45;;;25.40;99.90;;;;;;5109110;28;20509;-54
2022/04/19 12:31:30;;;;;;;36.10;11.60;;;25.30;99.90;;;;;;5109001;28;20099;-52
2022/04/19 12:33:56;;;;;;;21.20;7.25;;;24.20;99.90;;;;;;5104878;28;20483;-54
2022/04/19 12:36:25;;;;;;;18.05;6.72;;;25.40;99.90;;;;;;5104537;28;20217;-53
2022/04/19 12:39:04;;;;;;;16.42;6.10;;;25.40;99.90;;;;;;5101760;28;20023;-55
2022/04/19 12:41:38;;;;;;;16.08;5.22;;;25.40;99.90;;;;;;5102043;28;20031;-57
2022/04/19 12:44:05;;;;;;;13.48;5.40;;;25.40;99.90;;;;;;5093365;28;20115;-56
2022/04/19 12:46:31;;;;;;;13.98;4.95;;;25.50;99.90;;;;;;5095287;28;20025;-56
2022/04/19 12:48:57;;;;;;;14.38;5.18;;;25.60;99.90;;;;;;5097036;28;20379;-55
2022/04/19 13:22:36;;;;;;;28.95;10.05;;;25.20;99.90;;;;;;5107425;27;20858;-54
2022/04/19 13:25:03;;;;;;;17.25;4.82;;;25.00;99.90;;;;;;5100082;28;20039;-54
2022/04/19 13:27:33;;;;;;;14.95;3.42;;;24.90;99.90;;;;;;5099582;28;20021;-56
2022/04/19 14:19:56;;;;;;;20.98;4.43;;;25.10;99.90;;;;;;5124741;27;20140;-49
2022/04/19 14:22:24;;;;;;;20.65;3.42;;;25.60;99.90;;;;;;5109012;28;20073;-52
2022/04/19 14:24:50;;;;;;;;;;;25.70;99.90;;;;;;5109516;28;20034;-51
2022/04/19 14:27:15;;;;;;;8.68;2.92;;;25.80;99.90;;;;;;5108401;28;20287;-53
2022/04/19 14:35:09;;;;;;;9.38;3.08;;;26.00;99.90;;;;;;5088163;28;20035;-53
2022/04/19 14:37:35;;;;;;;41.95;9.50;;;26.00;99.90;;;;;;5092079;28;20016;-53
2022/04/19 14:40:01;;;;;;;33.28;8.55;;;26.10;99.90;;;;;;5098162;28;20597;-53
2022/04/19 14:42:28;;;;;;;28.83;7.32;;;26.10;99.90;;;;;;5108235;28;20103;-52
2022/04/19 14:44:54;;;;;;;26.33;5.47;;;26.10;99.90;;;;;;5108485;28;20032;-52
2022/04/19 14:47:20;;;;;;;18.77;6.18;;;26.10;99.90;;;;;;5108296;28;20098;-52
2022/04/19 14:49:45;;;;;;;15.85;4.90;;;26.10;99.90;;;;;;5101721;28;20116;-52